Aviation Digital Data Service (ADDS)

Output produced by METARs form (2212 UTC 15 October 2018)
found at http://aviationweather.gov/metar/data/
 
KUTS 152142Z 1522/1618 35007KT 4SM -RA BR VCTS OVC005CB 
     TEMPO 1522/1524 VRB10G30KT 1SM +TSRA BR 
     FM160000 35010G20KT 6SM -RA OVC008 
     FM160300 36011KT 6SM -RA OVC006 
     TEMPO 1605/1609 3SM TSRA BR BKN006CB OVC012 
     FM161500 36011KT P6SM -RA BKN007 OVC012